Time;durP1;ratioP1;P1;durP2;ratioP2;P2;SDS_P1;SDS_P2;PMS_P1;PMS_P2;Temp;Humidity;BMP_temperature;BMP_pressure;BME280_temperature;BME280_humidity;BME280_pressure;Samples;Min_cycle;Max_cycle;Signal;HPM_P1;HPM_P2
2022/11/20 00:00:41;;;;;;;21.83;13.50;;;7.30;53.20;;;;;;5030785;28;20056;-49
2022/11/20 00:03:08;;;;;;;24.50;14.77;;;7.30;53.30;;;;;;5036064;28;20054;-51
2022/11/20 00:05:36;;;;;;;22.23;14.70;;;7.30;53.20;;;;;;5035355;28;20054;-51
2022/11/20 00:08:05;;;;;;;20.67;14.02;;;7.30;53.20;;;;;;5034522;28;20057;-50
2022/11/20 00:10:32;;;;;;;20.00;12.60;;;7.30;53.20;;;;;;5029961;28;20053;-51
2022/11/20 00:12:59;;;;;;;23.65;15.20;;;7.30;53.20;;;;;;5034759;28;20049;-52
2022/11/20 00:15:26;;;;;;;20.40;13.57;;;7.30;53.20;;;;;;5033438;28;20401;-49
2022/11/20 00:17:54;;;;;;;23.15;14.13;;;7.30;53.30;;;;;;5035770;28;20394;-49
2022/11/20 00:20:21;;;;;;;25.33;15.68;;;7.30;53.20;;;;;;5033333;28;20058;-47
2022/11/20 00:22:48;;;;;;;24.02;13.95;;;7.30;53.20;;;;;;5035774;28;20045;-51
2022/11/20 00:25:17;;;;;;;28.33;14.32;;;7.30;53.20;;;;;;5032451;28;20045;-51
2022/11/20 00:27:44;;;;;;;23.75;14.70;;;7.20;53.10;;;;;;5035367;28;20485;-44
2022/11/20 00:30:12;;;;;;;23.15;14.40;;;7.20;53.10;;;;;;5031063;28;20045;-46
2022/11/20 00:32:39;;;;;;;27.45;15.98;;;7.30;53.30;;;;;;5032983;28;20053;-49
2022/11/20 00:35:07;;;;;;;22.98;14.80;;;7.30;53.20;;;;;;5035547;28;20053;-50
2022/11/20 00:37:34;;;;;;;23.58;14.20;;;7.20;53.20;;;;;;5035276;28;20053;-49
2022/11/20 00:40:01;;;;;;;21.60;13.07;;;7.20;53.20;;;;;;5031269;28;20053;-46
2022/11/20 00:42:32;;;;;;;22.23;13.48;;;7.20;53.30;;;;;;5033652;28;20050;-52
2022/11/20 00:44:59;;;;;;;22.35;14.18;;;7.20;53.30;;;;;;5035203;28;20556;-51
2022/11/20 00:47:26;;;;;;;22.38;14.02;;;7.20;53.30;;;;;;5033758;28;20065;-52
2022/11/20 00:49:54;;;;;;;22.05;14.57;;;7.20;53.30;;;;;;5034299;28;20084;-52
2022/11/20 00:52:21;;;;;;;22.73;14.20;;;7.30;53.40;;;;;;5033094;28;20064;-51
2022/11/20 00:54:48;;;;;;;22.55;13.93;;;7.30;53.40;;;;;;5029943;28;20053;-52
2022/11/20 00:57:15;;;;;;;22.77;14.43;;;7.30;53.50;;;;;;5034730;28;20053;-49
2022/11/20 00:59:44;;;;;;;23.00;14.23;;;7.20;53.90;;;;;;5034406;28;20060;-45
2022/11/20 01:02:11;;;;;;;24.60;14.43;;;7.30;53.50;;;;;;5031208;28;20421;-51
2022/11/20 01:04:38;;;;;;;22.55;14.68;;;7.30;53.50;;;;;;5034667;28;20052;-47
2022/11/20 01:07:06;;;;;;;25.35;15.43;;;7.30;53.50;;;;;;5033824;28;20050;-51
2022/11/20 01:09:33;;;;;;;22.50;14.40;;;7.30;53.60;;;;;;5033416;28;20061;-51
2022/11/20 01:12:00;;;;;;;25.25;15.25;;;7.30;53.60;;;;;;5031088;28;20509;-50
2022/11/20 01:14:27;;;;;;;23.52;14.45;;;7.30;53.70;;;;;;5035209;28;20061;-51
2022/11/20 01:16:56;;;;;;;24.17;14.68;;;7.30;53.70;;;;;;5032610;28;20084;-50
2022/11/20 01:19:24;;;;;;;22.08;13.80;;;7.30;53.70;;;;;;5034314;28;20049;-47
2022/11/20 01:21:53;;;;;;;23.05;14.43;;;7.30;53.70;;;;;;5029480;28;20413;-48
2022/11/20 01:24:22;;;;;;;24.80;14.65;;;7.30;53.70;;;;;;5034589;28;20056;-47
2022/11/20 01:26:51;;;;;;;25.17;14.85;;;7.30;53.80;;;;;;5034267;28;20053;-51
2022/11/20 01:29:20;;;;;;;22.35;14.50;;;7.30;53.80;;;;;;5035295;28;20053;-49
2022/11/20 01:31:48;;;;;;;24.20;14.55;;;7.30;53.80;;;;;;5028776;28;20064;-51
2022/11/20 01:34:19;;;;;;;24.73;15.80;;;7.20;53.80;;;;;;5034424;28;20053;-45
2022/11/20 01:36:47;;;;;;;26.58;16.08;;;7.30;53.80;;;;;;5034555;28;20057;-49
2022/11/20 01:39:16;;;;;;;26.08;15.02;;;7.30;53.80;;;;;;5031389;28;20057;-49
2022/11/20 01:44:49;;;;;;;27.77;16.75;;;7.30;53.90;;;;;;5034896;28;20057;-50
2022/11/20 01:47:21;;;;;;;25.77;15.00;;;7.30;53.80;;;;;;5032525;28;20056;-48
2022/11/20 01:49:53;;;;;;;23.70;14.38;;;7.30;53.80;;;;;;5033659;28;20057;-47
2022/11/20 01:52:23;;;;;;;22.10;13.85;;;7.30;53.80;;;;;;5030898;28;20053;-51
2022/11/20 01:54:54;;;;;;;24.88;15.40;;;7.30;53.80;;;;;;5033501;28;21646;-50
2022/11/20 01:57:24;;;;;;;23.17;14.45;;;7.20;53.80;;;;;;5033460;28;20053;-50
2022/11/20 01:59:57;;;;;;;22.65;14.57;;;7.20;53.90;;;;;;5033494;28;20061;-48
2022/11/20 02:02:25;;;;;;;23.90;15.23;;;7.20;53.90;;;;;;5020895;28;20730;-41
2022/11/20 02:04:56;;;;;;;25.05;14.55;;;7.20;53.90;;;;;;5021216;28;20061;-41
2022/11/20 02:07:24;;;;;;;22.48;14.52;;;7.30;53.90;;;;;;5021608;28;20053;-46
2022/11/20 02:09:52;;;;;;;21.88;14.18;;;7.20;53.90;;;;;;5021873;28;20489;-41
2022/11/20 02:15:05;;;;;;;21.27;13.75;;;7.20;54.00;;;;;;5027337;28;20099;-43
2022/11/20 02:17:32;;;;;;;22.88;14.40;;;7.30;54.00;;;;;;5023499;28;20060;-45
2022/11/20 02:20:01;;;;;;;27.45;16.27;;;7.30;54.10;;;;;;5022104;28;20053;-45
2022/11/20 02:22:33;;;;;;;23.27;14.40;;;7.20;54.00;;;;;;5020231;28;20489;-40
2022/11/20 02:25:04;;;;;;;27.48;16.80;;;7.20;53.90;;;;;;5020696;28;20063;-41
2022/11/20 02:27:31;;;;;;;32.03;16.85;;;7.20;53.90;;;;;;5023006;28;20053;-42
2022/11/20 02:30:02;;;;;;;30.25;17.90;;;7.20;53.70;;;;;;5022841;28;20061;-40
2022/11/20 02:32:32;;;;;;;28.77;16.33;;;7.10;53.50;;;;;;5021986;28;20053;-41
2022/11/20 02:34:59;;;;;;;26.08;15.93;;;7.00;53.50;;;;;;5026232;28;20517;-42
2022/11/20 02:37:33;;;;;;;30.70;17.83;;;7.00;53.50;;;;;;5024188;28;20061;-42
2022/11/20 02:40:01;;;;;;;29.65;17.55;;;6.90;53.60;;;;;;5023550;28;20524;-43
2022/11/20 02:42:29;;;;;;;28.30;16.88;;;6.80;53.70;;;;;;5024904;28;20050;-41
2022/11/20 02:44:56;;;;;;;22.98;15.00;;;6.70;53.90;;;;;;5026081;28;20050;-41
2022/11/20 02:47:23;;;;;;;24.30;13.98;;;6.70;54.10;;;;;;5025568;28;20390;-44
2022/11/20 02:49:50;;;;;;;28.77;16.27;;;6.70;54.30;;;;;;5024542;28;20065;-43
2022/11/20 02:52:17;;;;;;;23.05;15.02;;;6.70;54.50;;;;;;5021914;28;20489;-43
2022/11/20 02:54:45;;;;;;;24.38;14.75;;;6.70;54.70;;;;;;5026059;28;20136;-41
2022/11/20 02:57:13;;;;;;;24.25;15.38;;;6.70;54.80;;;;;;5025197;28;20053;-40
2022/11/20 02:59:40;;;;;;;27.60;16.23;;;6.70;54.80;;;;;;5024093;28;20520;-47
2022/11/20 03:02:08;;;;;;;26.45;15.82;;;6.70;54.80;;;;;;5023284;28;20077;-40
2022/11/20 03:04:35;;;;;;;27.85;16.23;;;6.70;54.90;;;;;;5023603;28;20069;-40
2022/11/20 03:07:02;;;;;;;25.90;15.38;;;6.80;54.90;;;;;;5026207;28;20069;-40
2022/11/20 03:09:30;;;;;;;26.77;15.43;;;6.80;54.90;;;;;;5023821;28;20417;-48
2022/11/20 03:11:57;;;;;;;23.02;14.70;;;6.90;55.00;;;;;;5021826;28;20050;-43
2022/11/20 03:14:26;;;;;;;24.70;15.02;;;6.90;54.90;;;;;;5025687;28;20072;-41
2022/11/20 03:16:53;;;;;;;25.30;15.38;;;6.90;54.90;;;;;;5019007;28;20069;-42
2022/11/20 03:19:21;;;;;;;24.98;15.30;;;6.90;54.80;;;;;;5022149;28;20061;-43
2022/11/20 03:21:48;;;;;;;25.63;15.43;;;6.90;54.80;;;;;;5020795;28;20061;-40
2022/11/20 03:24:15;;;;;;;26.20;14.75;;;7.00;54.80;;;;;;5024012;28;20060;-39
2022/11/20 03:26:43;;;;;;;24.50;15.02;;;7.00;54.80;;;;;;5023157;28;20061;-43
2022/11/20 03:29:10;;;;;;;23.58;14.32;;;7.00;54.80;;;;;;5024811;28;20520;-43
2022/11/20 03:31:40;;;;;;;25.63;15.32;;;7.00;54.80;;;;;;5016330;28;20053;-41
2022/11/20 03:34:08;;;;;;;23.90;14.75;;;7.10;54.90;;;;;;5022965;28;20061;-42
2022/11/20 03:36:38;;;;;;;23.45;14.75;;;7.10;54.90;;;;;;5017768;28;20061;-42
2022/11/20 03:39:05;;;;;;;23.83;14.85;;;7.00;54.80;;;;;;5020064;28;20057;-42
2022/11/20 03:41:37;;;;;;;25.50;14.85;;;7.10;54.90;;;;;;5020585;28;20490;-45
2022/11/20 03:44:07;;;;;;;23.70;14.80;;;7.10;54.90;;;;;;5020149;28;20046;-45
2022/11/20 03:46:34;;;;;;;25.00;15.18;;;7.10;54.90;;;;;;5021848;28;20259;-49
2022/11/20 03:49:03;;;;;;;23.67;14.90;;;7.10;54.80;;;;;;5025109;28;20064;-41
2022/11/20 03:51:32;;;;;;;26.40;16.17;;;7.20;54.80;;;;;;5017139;28;20512;-43
2022/11/20 03:54:01;;;;;;;23.60;14.93;;;7.10;54.80;;;;;;5022143;28;20053;-41
2022/11/20 03:56:31;;;;;;;32.33;16.52;;;7.20;54.80;;;;;;5028497;28;20493;-52
2022/11/20 03:58:58;;;;;;;24.35;15.30;;;7.20;54.80;;;;;;5034715;28;20476;-41
2022/11/20 04:01:27;;;;;;;23.58;15.07;;;7.20;54.80;;;;;;5020303;28;20144;-40
2022/11/20 04:07:18;;;;;;;26.10;16.10;;;7.20;54.80;;;;;;5022456;28;20056;-40
2022/11/20 04:09:45;;;;;;;22.65;14.48;;;7.20;54.80;;;;;;5021098;28;20541;-48
2022/11/20 04:12:12;;;;;;;24.15;14.73;;;7.20;54.80;;;;;;5024156;28;20057;-43
2022/11/20 04:14:40;;;;;;;23.88;14.55;;;7.20;54.80;;;;;;5022894;28;20057;-47
2022/11/20 04:17:07;;;;;;;22.88;14.38;;;7.30;54.80;;;;;;5023236;28;20490;-43
2022/11/20 04:19:34;;;;;;;24.98;16.17;;;7.30;54.80;;;;;;5024971;28;20056;-42
2022/11/20 04:22:01;;;;;;;24.95;14.20;;;7.30;54.80;;;;;;5024927;28;20053;-44
2022/11/20 04:24:29;;;;;;;25.35;15.70;;;7.30;54.80;;;;;;5024961;28;20053;-43
2022/11/20 04:26:57;;;;;;;23.50;14.25;;;7.30;54.90;;;;;;5024960;28;20058;-40
2022/11/20 04:29:24;;;;;;;23.90;15.02;;;7.30;54.90;;;;;;5024968;28;20060;-41
2022/11/20 04:31:51;;;;;;;24.13;14.95;;;7.30;54.90;;;;;;5023533;28;20057;-42
2022/11/20 04:34:18;;;;;;;23.90;15.68;;;7.30;54.90;;;;;;5021122;28;20064;-40
2022/11/20 04:36:45;;;;;;;26.75;15.95;;;7.30;54.90;;;;;;5023891;28;20057;-41
2022/11/20 04:39:15;;;;;;;23.42;14.45;;;7.30;54.90;;;;;;5024596;28;20481;-42
2022/11/20 04:41:43;;;;;;;25.20;15.70;;;7.30;54.90;;;;;;5013498;28;20073;-40
2022/11/20 04:44:11;;;;;;;24.08;15.27;;;7.30;54.90;;;;;;5002180;28;20049;-40
2022/11/20 04:46:40;;;;;;;25.55;15.85;;;7.30;54.90;;;;;;5004727;28;20053;-50
2022/11/20 04:49:07;;;;;;;26.80;15.57;;;7.30;54.90;;;;;;5013927;28;20057;-51
2022/11/20 04:51:35;;;;;;;29.58;17.13;;;7.40;55.00;;;;;;5014058;28;20053;-52
2022/11/20 04:54:02;;;;;;;27.05;15.82;;;7.30;54.90;;;;;;5009579;28;20053;-51
2022/11/20 04:56:29;;;;;;;26.27;15.95;;;7.30;55.00;;;;;;5012411;28;20058;-51
2022/11/20 04:59:01;;;;;;;25.73;15.30;;;7.40;55.00;;;;;;5013594;28;20054;-49
2022/11/20 05:01:30;;;;;;;26.77;15.38;;;7.30;55.00;;;;;;5011056;28;20075;-51
2022/11/20 05:03:57;;;;;;;25.58;15.77;;;7.30;55.00;;;;;;5013703;28;20050;-52
2022/11/20 05:06:24;;;;;;;28.30;15.73;;;7.40;55.10;;;;;;5012956;28;20072;-52
2022/11/20 05:08:51;;;;;;;26.42;15.85;;;7.40;55.20;;;;;;5013244;28;20046;-52
2022/11/20 05:11:21;;;;;;;29.42;16.13;;;7.40;55.20;;;;;;5012967;28;20053;-52
2022/11/20 05:13:48;;;;;;;30.52;16.52;;;7.40;55.20;;;;;;5014219;28;20058;-52
2022/11/20 05:16:19;;;;;;;27.80;16.52;;;7.40;55.20;;;;;;5011051;28;20050;-49
2022/11/20 05:18:46;;;;;;;26.33;15.98;;;7.40;55.20;;;;;;5010495;28;20065;-50
2022/11/20 05:21:14;;;;;;;28.50;16.70;;;7.40;55.30;;;;;;5007827;28;20100;-44
2022/11/20 05:23:42;;;;;;;28.52;16.38;;;7.40;55.20;;;;;;5010554;28;20133;-52
2022/11/20 05:26:14;;;;;;;28.25;15.40;;;7.40;55.30;;;;;;5010559;28;20042;-49
2022/11/20 05:28:41;;;;;;;27.92;16.52;;;7.40;55.30;;;;;;5015070;28;20057;-48
2022/11/20 05:31:10;;;;;;;27.70;16.25;;;7.40;55.30;;;;;;5010498;28;20060;-46
2022/11/20 05:33:40;;;;;;;28.83;16.38;;;7.40;55.30;;;;;;5013633;28;20060;-51
2022/11/20 05:36:09;;;;;;;26.35;16.17;;;7.40;55.30;;;;;;5014084;28;20058;-49
2022/11/20 05:38:36;;;;;;;27.17;16.25;;;7.40;55.40;;;;;;5012025;28;20049;-48
2022/11/20 05:41:07;;;;;;;28.15;16.30;;;7.50;55.40;;;;;;5011994;28;20057;-52
2022/11/20 05:43:35;;;;;;;28.90;17.10;;;7.50;55.40;;;;;;5013371;28;20054;-46
2022/11/20 05:46:02;;;;;;;30.08;17.70;;;7.40;55.40;;;;;;5013761;28;20391;-52
2022/11/20 05:48:30;;;;;;;32.08;17.55;;;7.50;55.40;;;;;;5014378;28;20049;-52
2022/11/20 05:51:00;;;;;;;27.73;16.63;;;7.50;55.50;;;;;;5012320;28;20050;-51
2022/11/20 05:53:27;;;;;;;28.55;16.35;;;7.50;55.50;;;;;;5013198;28;20509;-50
2022/11/20 05:55:58;;;;;;;28.67;16.98;;;7.50;55.50;;;;;;5014169;28;20057;-44
2022/11/20 05:58:26;;;;;;;28.88;17.08;;;7.50;55.60;;;;;;5015050;28;20050;-47
2022/11/20 06:00:53;;;;;;;27.30;16.63;;;7.50;55.50;;;;;;5012472;28;20053;-51
2022/11/20 06:03:20;;;;;;;28.85;16.33;;;7.50;55.60;;;;;;5006776;23;20511;-49
2022/11/20 06:05:48;;;;;;;33.50;18.63;;;7.50;55.60;;;;;;4982823;28;20046;-50
2022/11/20 06:08:16;;;;;;;29.35;16.60;;;7.50;55.60;;;;;;4988236;28;20054;-50
2022/11/20 06:10:44;;;;;;;30.40;17.17;;;7.50;55.60;;;;;;4992029;28;20510;-51
2022/11/20 06:13:11;;;;;;;33.25;18.92;;;7.50;55.60;;;;;;4984214;28;20051;-49
2022/11/20 06:15:38;;;;;;;35.00;19.83;;;7.50;55.50;;;;;;4987094;28;20055;-47
2022/11/20 06:18:05;;;;;;;33.20;19.40;;;7.50;55.40;;;;;;4991166;28;20065;-46
2022/11/20 06:20:33;;;;;;;36.78;19.40;;;7.40;55.30;;;;;;4983465;28;20055;-47
2022/11/20 06:23:00;;;;;;;33.97;20.23;;;7.40;55.30;;;;;;4982931;28;20074;-42
2022/11/20 06:25:28;;;;;;;33.70;19.75;;;7.30;55.40;;;;;;4982757;28;20061;-40
2022/11/20 06:27:56;;;;;;;35.00;19.70;;;7.20;55.60;;;;;;4981024;28;20505;-40
2022/11/20 06:30:23;;;;;;;32.10;18.90;;;7.10;55.70;;;;;;4981108;28;20058;-41
2022/11/20 06:32:50;;;;;;;29.13;16.85;;;7.00;55.90;;;;;;4982586;28;20419;-40
2022/11/20 06:35:17;;;;;;;26.38;16.15;;;6.90;56.10;;;;;;4983100;28;20058;-40
2022/11/20 06:37:44;;;;;;;27.85;16.48;;;6.80;56.30;;;;;;4979479;28;20051;-40
2022/11/20 06:40:12;;;;;;;24.83;15.07;;;6.70;56.50;;;;;;4977530;28;20050;-42
2022/11/20 06:42:41;;;;;;;28.90;17.40;;;6.70;56.70;;;;;;4972830;28;20061;-44
2022/11/20 06:45:09;;;;;;;27.30;16.33;;;6.70;56.80;;;;;;4977073;28;20384;-42
2022/11/20 06:47:37;;;;;;;27.38;16.63;;;6.60;56.90;;;;;;4974778;28;20426;-48
2022/11/20 06:50:04;;;;;;;27.23;17.52;;;6.50;57.00;;;;;;4972779;28;20402;-43
2022/11/20 06:52:32;;;;;;;27.77;16.35;;;6.50;57.20;;;;;;4976206;28;20410;-42
2022/11/20 06:54:59;;;;;;;27.33;15.70;;;6.50;57.30;;;;;;4975983;28;20065;-41
2022/11/20 06:57:26;;;;;;;28.40;17.30;;;6.40;57.40;;;;;;4979459;28;20061;-39
2022/11/20 06:59:55;;;;;;;23.08;14.02;;;6.40;57.50;;;;;;4982571;28;20097;-41
2022/11/20 07:02:22;;;;;;;29.48;16.65;;;6.40;57.50;;;;;;4968113;28;20876;-40
2022/11/20 07:04:49;;;;;;;33.75;16.42;;;6.30;57.70;;;;;;4980882;28;20054;-40
2022/11/20 07:07:16;;;;;;;35.08;17.35;;;6.40;57.70;;;;;;4980849;28;20483;-40
2022/11/20 07:09:43;;;;;;;27.10;15.82;;;6.40;57.70;;;;;;4980629;28;20055;-40
2022/11/20 07:12:11;;;;;;;29.35;17.15;;;6.30;57.70;;;;;;4982824;28;20069;-40
2022/11/20 07:14:38;;;;;;;29.58;16.90;;;6.30;57.70;;;;;;4978834;28;20062;-43
2022/11/20 07:17:06;;;;;;;29.67;16.10;;;6.30;57.60;;;;;;4980721;28;20422;-40
2022/11/20 07:19:34;;;;;;;34.40;17.90;;;6.30;57.70;;;;;;4986266;28;20058;-40
2022/11/20 07:22:01;;;;;;;26.17;16.45;;;6.30;57.80;;;;;;4986629;28;20065;-40
2022/11/20 07:24:28;;;;;;;28.25;16.77;;;6.30;57.70;;;;;;4986556;28;20058;-40
2022/11/20 07:26:55;;;;;;;27.65;16.35;;;6.30;57.80;;;;;;4986160;28;20050;-40
2022/11/20 07:29:22;;;;;;;27.73;16.40;;;6.20;57.70;;;;;;4985420;28;20061;-40
2022/11/20 07:31:50;;;;;;;24.73;15.30;;;6.20;57.80;;;;;;4984250;28;20502;-40
2022/11/20 07:34:19;;;;;;;30.95;16.88;;;6.20;57.80;;;;;;4986161;28;20065;-42
2022/11/20 07:36:46;;;;;;;26.17;15.45;;;6.20;57.90;;;;;;4984905;28;20058;-39
2022/11/20 07:39:14;;;;;;;26.92;16.40;;;6.20;57.90;;;;;;4986050;28;20529;-40
2022/11/20 07:41:41;;;;;;;27.88;15.27;;;6.20;57.90;;;;;;4984519;28;20062;-40
2022/11/20 07:44:08;;;;;;;23.08;14.65;;;6.30;57.90;;;;;;4986162;28;20061;-42
2022/11/20 07:46:36;;;;;;;27.30;15.70;;;6.30;57.90;;;;;;4981384;28;20042;-41
2022/11/20 07:49:03;;;;;;;26.38;15.10;;;6.40;58.00;;;;;;4985441;28;20051;-40
2022/11/20 07:51:31;;;;;;;24.52;16.05;;;6.40;57.90;;;;;;4982791;28;20058;-39
2022/11/20 07:53:59;;;;;;;30.45;16.25;;;6.50;58.00;;;;;;4983037;28;20065;-42
2022/11/20 07:56:26;;;;;;;24.23;15.40;;;6.50;58.00;;;;;;4984175;28;20403;-40
2022/11/20 07:58:53;;;;;;;28.10;15.65;;;6.60;57.90;;;;;;4979181;28;20088;-40
2022/11/20 08:01:20;;;;;;;21.40;14.30;;;6.60;57.90;;;;;;4971745;28;20066;-48
2022/11/20 08:03:47;;;;;;;23.90;15.05;;;6.70;58.00;;;;;;4983611;28;21461;-44
2022/11/20 08:06:15;;;;;;;25.27;14.60;;;6.80;57.90;;;;;;4988552;28;20061;-46
2022/11/20 08:08:44;;;;;;;32.95;15.85;;;6.80;57.80;;;;;;4993036;28;20558;-47
2022/11/20 08:14:15;;;;;;;72.82;29.88;;;6.90;57.70;;;;;;5002430;28;20049;-48
2022/11/20 08:16:46;;;;;;;46.58;22.55;;;6.90;57.70;;;;;;4991795;28;20046;-49
2022/11/20 08:19:14;;;;;;;36.92;20.33;;;7.00;57.70;;;;;;4988960;28;20042;-46
2022/11/20 08:21:41;;;;;;;33.13;18.45;;;7.00;57.60;;;;;;4971719;28;20054;-51
2022/11/20 08:24:10;;;;;;;36.92;19.88;;;7.10;57.70;;;;;;4981643;28;20073;-47
2022/11/20 08:26:39;;;;;;;31.02;17.48;;;7.10;57.60;;;;;;4976935;28;20522;-53
2022/11/20 08:29:06;;;;;;;31.15;17.85;;;7.20;57.60;;;;;;4977077;28;20054;-46
2022/11/20 08:31:34;;;;;;;40.97;18.80;;;7.20;57.60;;;;;;4982330;28;20517;-48
2022/11/20 08:34:01;;;;;;;32.22;17.27;;;7.20;57.60;;;;;;4986949;28;20058;-47
2022/11/20 08:36:29;;;;;;;42.25;20.42;;;7.30;57.60;;;;;;4984739;28;20046;-48
2022/11/20 08:38:56;;;;;;;35.33;18.95;;;7.30;57.60;;;;;;4985314;28;20049;-47
2022/11/20 08:41:26;;;;;;;32.50;17.88;;;7.40;57.60;;;;;;4983243;28;20054;-51
2022/11/20 08:43:56;;;;;;;32.35;18.48;;;7.40;57.60;;;;;;4990545;28;20063;-46
2022/11/20 08:46:24;;;;;;;33.88;18.23;;;7.40;57.60;;;;;;4994164;28;20046;-49
2022/11/20 08:48:51;;;;;;;36.70;20.08;;;7.50;57.60;;;;;;4994072;28;20055;-49
2022/11/20 08:51:20;;;;;;;37.78;20.65;;;7.50;57.60;;;;;;4986635;28;20507;-49
2022/11/20 08:53:49;;;;;;;39.03;21.58;;;7.50;57.60;;;;;;4991784;28;20057;-51
2022/11/20 08:56:16;;;;;;;40.20;22.80;;;7.60;57.60;;;;;;4991071;28;20073;-53
2022/11/20 08:58:45;;;;;;;39.70;21.00;;;7.60;57.50;;;;;;4992034;28;21204;-48
2022/11/20 09:01:12;;;;;;;42.33;22.60;;;7.60;57.40;;;;;;4991635;28;20054;-45
2022/11/20 09:03:39;;;;;;;42.22;20.40;;;7.70;57.40;;;;;;4992527;28;20070;-49
2022/11/20 09:06:08;;;;;;;37.72;20.33;;;7.70;57.30;;;;;;4991355;28;20057;-49
2022/11/20 09:08:36;;;;;;;42.20;20.52;;;7.70;57.20;;;;;;4990619;28;20058;-46
2022/11/20 09:11:04;;;;;;;42.67;22.42;;;7.70;57.20;;;;;;4991719;28;20491;-47
2022/11/20 09:13:34;;;;;;;38.15;22.05;;;7.80;57.30;;;;;;4991864;28;20054;-48
2022/11/20 09:16:05;;;;;;;39.70;21.42;;;7.80;57.20;;;;;;4989867;28;20054;-46
2022/11/20 09:18:33;;;;;;;38.03;21.10;;;7.80;57.10;;;;;;4990715;28;20054;-51
2022/11/20 09:21:02;;;;;;;41.10;21.08;;;7.80;57.00;;;;;;4984971;28;20054;-50
2022/11/20 09:23:33;;;;;;;44.15;25.15;;;7.80;56.90;;;;;;4989525;28;20510;-50
2022/11/20 09:26:03;;;;;;;40.53;22.40;;;7.90;56.90;;;;;;4985813;28;20050;-51
2022/11/20 09:28:30;;;;;;;36.42;21.15;;;7.90;56.90;;;;;;4988060;28;20503;-50
2022/11/20 09:30:58;;;;;;;40.38;21.83;;;7.90;56.80;;;;;;4984196;28;20050;-52
2022/11/20 09:33:27;;;;;;;37.63;21.35;;;7.90;56.80;;;;;;4978755;28;20569;-52
2022/11/20 09:35:54;;;;;;;42.15;19.27;;;8.00;56.70;;;;;;4991030;28;20050;-51
2022/11/20 09:38:21;;;;;;;35.85;19.38;;;7.90;56.70;;;;;;4990948;28;20054;-51
2022/11/20 09:40:56;;;;;;;39.15;21.15;;;8.00;56.70;;;;;;4987903;28;20062;-50
2022/11/20 09:43:33;;;;;;;34.13;19.25;;;8.00;56.80;;;;;;4991168;28;20054;-47
2022/11/20 09:46:08;;;;;;;36.65;20.35;;;8.00;56.80;;;;;;4991628;28;20054;-49
2022/11/20 09:48:56;;;;;;;33.45;18.63;;;8.10;56.90;;;;;;4992037;28;20069;-52
2022/11/20 09:51:35;;;;;;;35.28;19.52;;;8.10;56.90;;;;;;4983897;28;20062;-48
2022/11/20 09:54:15;;;;;;;35.85;18.55;;;8.20;56.90;;;;;;4981766;28;20076;-51
2022/11/20 09:56:45;;;;;;;34.20;18.40;;;8.20;56.80;;;;;;4993311;28;20065;-51
2022/11/20 09:59:26;;;;;;;35.10;19.42;;;8.20;56.80;;;;;;4992540;28;20483;-51
2022/11/20 10:01:56;;;;;;;34.53;19.42;;;8.20;56.80;;;;;;4991775;28;20057;-51
2022/11/20 10:04:25;;;;;;;32.58;18.75;;;8.30;56.80;;;;;;4991548;28;20054;-50
2022/11/20 10:07:01;;;;;;;33.67;19.10;;;8.30;56.80;;;;;;4993654;28;20054;-50
2022/11/20 10:09:32;;;;;;;34.33;19.20;;;8.30;56.80;;;;;;4994653;28;20058;-46
2022/11/20 10:12:13;;;;;;;36.58;20.17;;;8.30;56.80;;;;;;4990872;28;20065;-51
2022/11/20 10:14:54;;;;;;;36.00;20.17;;;8.40;56.90;;;;;;4993837;28;20069;-48
2022/11/20 10:17:35;;;;;;;35.53;19.88;;;8.40;56.90;;;;;;4990860;28;20046;-50
2022/11/20 10:20:16;;;;;;;33.75;20.08;;;8.40;56.80;;;;;;4993204;28;20057;-49
2022/11/20 10:22:57;;;;;;;36.13;19.67;;;8.50;56.80;;;;;;4992094;28;20058;-48
2022/11/20 10:25:30;;;;;;;34.88;19.92;;;8.50;56.80;;;;;;4989965;28;20506;-51
2022/11/20 10:28:16;;;;;;;37.35;21.55;;;8.50;56.70;;;;;;4990595;28;20053;-52
2022/11/20 10:30:46;;;;;;;38.60;21.23;;;8.60;56.60;;;;;;4988675;28;20054;-46
2022/11/20 10:33:19;;;;;;;38.47;22.38;;;8.60;56.50;;;;;;4990228;28;20174;-47
2022/11/20 10:35:53;;;;;;;36.50;20.33;;;8.60;56.50;;;;;;4989344;28;20058;-50
2022/11/20 10:38:22;;;;;;;;;;;8.60;56.40;;;;;;4992465;28;20054;-49
2022/11/20 10:40:54;;;;;;;37.28;20.02;;;8.70;56.50;;;;;;4989857;28;19929;-46
2022/11/20 10:43:29;;;;;;;34.63;18.35;;;8.70;56.40;;;;;;4986450;28;20058;-51
2022/11/20 10:46:01;;;;;;;31.45;17.60;;;8.70;56.40;;;;;;4989825;28;20663;-52
2022/11/20 10:48:29;;;;;;;32.80;18.33;;;8.70;56.40;;;;;;4990258;28;20073;-50
2022/11/20 10:51:19;;;;;;;31.35;18.25;;;8.70;56.40;;;;;;4987876;28;20050;-49
2022/11/20 10:54:02;;;;;;;37.65;19.98;;;8.80;56.40;;;;;;4990443;28;20434;-46
2022/11/20 10:56:39;;;;;;;35.28;19.60;;;8.80;56.30;;;;;;4996070;28;20046;-52
2022/11/20 10:59:36;;;;;;;28.67;16.00;;;8.80;56.40;;;;;;4995193;28;20517;-50
2022/11/20 11:02:16;;;;;;;40.70;23.20;;;8.80;56.40;;;;;;4975919;28;20058;-51
2022/11/20 11:04:46;;;;;;;30.83;18.02;;;8.90;56.40;;;;;;4991936;28;20058;-46
2022/11/20 11:07:19;;;;;;;29.83;17.25;;;8.90;56.20;;;;;;4992976;28;20057;-52
2022/11/20 11:09:50;;;;;;;29.13;16.75;;;8.90;56.10;;;;;;4993211;28;20054;-50
2022/11/20 11:12:17;;;;;;;32.58;18.02;;;8.90;56.10;;;;;;4986021;28;20054;-45
2022/11/20 11:14:47;;;;;;;27.50;16.63;;;8.90;56.10;;;;;;4992967;28;20058;-49
2022/11/20 11:17:28;;;;;;;30.45;16.30;;;8.90;56.20;;;;;;4988717;28;20716;-48
2022/11/20 11:20:04;;;;;;;30.65;17.33;;;8.90;56.20;;;;;;4988092;28;20058;-50
2022/11/20 11:22:34;;;;;;;28.02;16.55;;;9.00;56.30;;;;;;4992757;28;20061;-45
2022/11/20 11:25:01;;;;;;;103.63;42.22;;;9.00;56.30;;;;;;4990237;28;20513;-50
2022/11/20 11:27:29;;;;;;;70.43;32.10;;;9.00;56.20;;;;;;4987771;28;20054;-50
2022/11/20 11:30:12;;;;;;;47.58;22.95;;;9.00;56.20;;;;;;4994168;28;20058;-48
2022/11/20 11:32:40;;;;;;;32.03;18.35;;;9.00;56.20;;;;;;4993601;28;20074;-47
2022/11/20 11:35:21;;;;;;;30.08;17.23;;;9.10;56.20;;;;;;4993246;28;20053;-48
2022/11/20 11:37:50;;;;;;;33.47;17.75;;;9.10;56.20;;;;;;4988809;28;20495;-51
2022/11/20 11:40:19;;;;;;;30.17;17.27;;;9.10;56.20;;;;;;4994269;28;20065;-50
2022/11/20 11:42:54;;;;;;;32.92;17.48;;;9.10;56.30;;;;;;4995618;28;20061;-50
2022/11/20 11:45:21;;;;;;;29.92;17.35;;;9.10;56.20;;;;;;4992729;28;20069;-51
2022/11/20 11:47:51;;;;;;;27.77;16.52;;;9.20;56.30;;;;;;4996174;28;20054;-45
2022/11/20 11:50:21;;;;;;;31.27;16.60;;;9.20;56.30;;;;;;4996361;28;20058;-50
2022/11/20 11:52:56;;;;;;;29.52;17.55;;;9.20;56.20;;;;;;4994186;28;20065;-51
2022/11/20 11:55:31;;;;;;;29.15;16.15;;;9.30;56.20;;;;;;4991745;28;20065;-52
2022/11/20 11:58:17;;;;;;;25.45;15.23;;;9.30;56.20;;;;;;4994124;28;20051;-46
2022/11/20 12:00:55;;;;;;;28.45;16.95;;;9.30;56.20;;;;;;4990649;28;20414;-49
2022/11/20 12:03:28;;;;;;;26.02;15.07;;;9.40;56.20;;;;;;4991557;28;20061;-51
2022/11/20 12:05:59;;;;;;;28.70;14.77;;;9.40;56.20;;;;;;4992550;28;21511;-50
2022/11/20 12:08:32;;;;;;;23.08;13.15;;;9.40;56.10;;;;;;4993584;28;20410;-51
2022/11/20 12:11:04;;;;;;;22.77;13.20;;;9.40;56.10;;;;;;4991960;28;20061;-49
2022/11/20 12:13:41;;;;;;;23.63;14.15;;;9.40;56.00;;;;;;4995117;28;20486;-51
2022/11/20 12:16:12;;;;;;;26.17;14.40;;;9.50;56.00;;;;;;4990947;28;20057;-47
2022/11/20 12:18:40;;;;;;;27.17;15.23;;;9.50;56.00;;;;;;4991518;28;20050;-48
2022/11/20 12:21:19;;;;;;;28.10;15.05;;;9.50;56.00;;;;;;4990636;28;20566;-51
2022/11/20 12:24:01;;;;;;;26.73;15.77;;;9.50;56.10;;;;;;4988859;28;20054;-48
2022/11/20 12:26:42;;;;;;;32.28;17.15;;;9.50;56.10;;;;;;4991989;28;20058;-51
2022/11/20 12:29:17;;;;;;;26.42;15.10;;;9.60;56.20;;;;;;4990139;28;20490;-49
2022/11/20 12:31:56;;;;;;;32.03;15.90;;;9.60;56.10;;;;;;4984673;28;20521;-53
2022/11/20 12:34:39;;;;;;;26.35;15.50;;;9.60;56.10;;;;;;4985259;28;20084;-46
2022/11/20 12:37:14;;;;;;;25.23;14.95;;;9.60;56.00;;;;;;4984847;28;20498;-46
2022/11/20 12:39:48;;;;;;;31.45;16.73;;;9.60;56.10;;;;;;4986925;28;20054;-50
2022/11/20 12:46:02;;;;;;;30.17;17.80;;;9.70;56.00;;;;;;4995649;28;20065;-51
2022/11/20 12:48:46;;;;;;;29.92;16.95;;;9.70;56.00;;;;;;4945555;28;20054;-51
2022/11/20 12:51:20;;;;;;;;;;;9.70;56.00;;;;;;4988251;28;20065;-50
2022/11/20 12:54:00;;;;;;;27.80;15.13;;;9.80;56.10;;;;;;4989049;28;19922;-52
2022/11/20 12:56:39;;;;;;;26.65;14.93;;;9.80;56.10;;;;;;4993246;28;20509;-50
2022/11/20 12:59:22;;;;;;;30.65;15.52;;;9.80;56.10;;;;;;4990715;28;20050;-49
2022/11/20 13:01:53;;;;;;;24.75;13.63;;;9.80;56.20;;;;;;4986280;28;20057;-49
2022/11/20 13:04:48;;;;;;;28.70;15.80;;;9.80;56.20;;;;;;4991249;28;20062;-50
2022/11/20 13:07:18;;;;;;;24.60;14.27;;;9.80;56.30;;;;;;4989680;28;20058;-50